sensor_id;sensor_type;location;lat;lon;timestamp;pressure;altitude;pressure_sealevel;temperature;humidity
10988;BME280;5547;42.672;23.230;2023-03-13T00:00:16;93456.56;;;-4.41;91.56
10988;BME280;5547;42.672;23.230;2023-03-13T00:03:16;93474.84;;;-4.46;90.99
10988;BME280;5547;42.672;23.230;2023-03-13T00:06:17;93496.25;;;-4.32;91.08
10988;BME280;5547;42.672;23.230;2023-03-13T00:09:17;93496.09;;;-4.35;91.79
10988;BME280;5547;42.672;23.230;2023-03-13T00:12:18;93499.59;;;-4.40;91.84
10988;BME280;5547;42.672;23.230;2023-03-13T00:15:19;93453.47;;;-4.69;90.50
10988;BME280;5547;42.672;23.230;2023-03-13T00:18:19;93497.78;;;-4.31;91.10
10988;BME280;5547;42.672;23.230;2023-03-13T00:21:21;93481.16;;;-4.30;90.95
10988;BME280;5547;42.672;23.230;2023-03-13T00:24:22;93494.28;;;-4.09;85.44
10988;BME280;5547;42.672;23.230;2023-03-13T00:27:23;93506.16;;;-3.99;90.64
10988;BME280;5547;42.672;23.230;2023-03-13T00:30:23;93449.06;;;-4.69;90.54
10988;BME280;5547;42.672;23.230;2023-03-13T00:33:24;93516.72;;;-4.04;86.96
10988;BME280;5547;42.672;23.230;2023-03-13T00:36:27;93490.59;;;-4.34;89.57
10988;BME280;5547;42.672;23.230;2023-03-13T00:39:27;93508.31;;;-4.18;89.90
10988;BME280;5547;42.672;23.230;2023-03-13T00:42:28;93448.75;;;-4.41;86.55
10988;BME280;5547;42.672;23.230;2023-03-13T00:45:28;93518.69;;;-4.10;86.87
10988;BME280;5547;42.672;23.230;2023-03-13T00:48:29;93444.47;;;-4.54;83.91
10988;BME280;5547;42.672;23.230;2023-03-13T00:51:29;93490.59;;;-4.16;84.77
10988;BME280;5547;42.672;23.230;2023-03-13T00:54:30;93481.75;;;-4.50;86.28
10988;BME280;5547;42.672;23.230;2023-03-13T00:57:30;93510.63;;;-4.08;83.60
10988;BME280;5547;42.672;23.230;2023-03-13T01:00:31;93509.22;;;-4.14;85.98
10988;BME280;5547;42.672;23.230;2023-03-13T01:03:31;93489.22;;;-4.49;86.57
10988;BME280;5547;42.672;23.230;2023-03-13T01:06:34;93510.16;;;-4.45;87.75
10988;BME280;5547;42.672;23.230;2023-03-13T01:09:34;93497.75;;;-4.39;87.52
10988;BME280;5547;42.672;23.230;2023-03-13T01:12:35;93494.88;;;-4.47;88.30
10988;BME280;5547;42.672;23.230;2023-03-13T01:15:36;93471.66;;;-4.60;90.01
10988;BME280;5547;42.672;23.230;2023-03-13T01:18:39;93503.28;;;-4.41;89.44
10988;BME280;5547;42.672;23.230;2023-03-13T01:21:40;93495.97;;;-4.39;86.25
10988;BME280;5547;42.672;23.230;2023-03-13T01:24:41;93450.41;;;-4.80;86.34
10988;BME280;5547;42.672;23.230;2023-03-13T01:27:42;93516.41;;;-4.37;88.02
10988;BME280;5547;42.672;23.230;2023-03-13T01:30:42;93461.25;;;-4.69;89.40
10988;BME280;5547;42.672;23.230;2023-03-13T01:33:43;93512.75;;;-4.36;85.81
10988;BME280;5547;42.672;23.230;2023-03-13T01:36:44;93462.31;;;-4.79;88.86
10988;BME280;5547;42.672;23.230;2023-03-13T01:39:49;93525.09;;;-4.42;89.13
10988;BME280;5547;42.672;23.230;2023-03-13T01:42:51;93513.81;;;-4.37;87.45
10988;BME280;5547;42.672;23.230;2023-03-13T01:49:01;93494.41;;;-4.66;88.20
10988;BME280;5547;42.672;23.230;2023-03-13T01:52:09;93497.28;;;-4.68;88.42
10988;BME280;5547;42.672;23.230;2023-03-13T01:55:14;93527.38;;;-4.67;87.96
10988;BME280;5547;42.672;23.230;2023-03-13T01:58:16;93525.69;;;-4.62;90.08
10988;BME280;5547;42.672;23.230;2023-03-13T02:01:18;93477.72;;;-4.91;90.31
10988;BME280;5547;42.672;23.230;2023-03-13T02:04:20;93517.94;;;-4.36;87.60
10988;BME280;5547;42.672;23.230;2023-03-13T02:08:05;93508.63;;;-4.55;89.10
10988;BME280;5547;42.672;23.230;2023-03-13T02:14:08;93524.19;;;-4.46;86.84
10988;BME280;5547;42.672;23.230;2023-03-13T02:17:08;93533.66;;;-4.50;90.46
10988;BME280;5547;42.672;23.230;2023-03-13T02:20:11;93533.81;;;-4.47;85.46
10988;BME280;5547;42.672;23.230;2023-03-13T02:23:21;93533.06;;;-4.38;86.31
10988;BME280;5547;42.672;23.230;2023-03-13T02:26:23;93498.63;;;-4.79;88.08
10988;BME280;5547;42.672;23.230;2023-03-13T02:29:24;93489.91;;;-5.00;90.98
10988;BME280;5547;42.672;23.230;2023-03-13T02:32:26;93546.31;;;-4.66;93.13
10988;BME280;5547;42.672;23.230;2023-03-13T02:35:29;93562.03;;;-4.71;93.25
10988;BME280;5547;42.672;23.230;2023-03-13T02:38:36;93539.03;;;-4.95;95.37
10988;BME280;5547;42.672;23.230;2023-03-13T02:41:39;93504.59;;;-5.27;97.66
10988;BME280;5547;42.672;23.230;2023-03-13T02:44:41;93581.50;;;-4.91;97.37
10988;BME280;5547;42.672;23.230;2023-03-13T02:47:43;93536.28;;;-5.39;96.87
10988;BME280;5547;42.672;23.230;2023-03-13T02:50:44;93585.41;;;-5.02;96.10
10988;BME280;5547;42.672;23.230;2023-03-13T02:53:47;93577.00;;;-5.08;95.70
10988;BME280;5547;42.672;23.230;2023-03-13T02:56:53;93581.06;;;-5.16;96.34
10988;BME280;5547;42.672;23.230;2023-03-13T02:59:55;93528.31;;;-5.51;95.55
10988;BME280;5547;42.672;23.230;2023-03-13T03:02:55;93560.56;;;-5.03;97.61
10988;BME280;5547;42.672;23.230;2023-03-13T03:05:56;93559.34;;;-4.97;92.10
10988;BME280;5547;42.672;23.230;2023-03-13T03:08:58;93579.63;;;-4.99;92.24
10988;BME280;5547;42.672;23.230;2023-03-13T03:11:58;93585.94;;;-4.83;91.09
10988;BME280;5547;42.672;23.230;2023-03-13T03:14:59;93591.47;;;-4.76;89.69
10988;BME280;5547;42.672;23.230;2023-03-13T03:17:59;93599.25;;;-4.76;89.25
10988;BME280;5547;42.672;23.230;2023-03-13T03:21:01;93607.94;;;-4.72;88.71
10988;BME280;5547;42.672;23.230;2023-03-13T03:24:05;93603.00;;;-4.91;92.33
10988;BME280;5547;42.672;23.230;2023-03-13T03:27:05;93561.53;;;-5.22;89.70
10988;BME280;5547;42.672;23.230;2023-03-13T03:30:06;93620.97;;;-5.03;93.92
10988;BME280;5547;42.672;23.230;2023-03-13T03:33:06;93601.47;;;-5.23;93.88
10988;BME280;5547;42.672;23.230;2023-03-13T03:36:10;93619.03;;;-5.20;93.28
10988;BME280;5547;42.672;23.230;2023-03-13T03:39:11;93623.13;;;-5.28;94.97
10988;BME280;5547;42.672;23.230;2023-03-13T03:42:11;93633.53;;;-5.19;96.05
10988;BME280;5547;42.672;23.230;2023-03-13T03:45:12;93626.09;;;-5.12;91.47
10988;BME280;5547;42.672;23.230;2023-03-13T03:48:12;93610.34;;;-5.24;90.50
10988;BME280;5547;42.672;23.230;2023-03-13T03:51:13;93657.41;;;-5.08;93.84
10988;BME280;5547;42.672;23.230;2023-03-13T03:54:13;93657.03;;;-5.15;95.89
10988;BME280;5547;42.672;23.230;2023-03-13T03:57:13;93649.69;;;-5.22;94.42
10988;BME280;5547;42.672;23.230;2023-03-13T04:00:14;93639.06;;;-5.12;92.87
10988;BME280;5547;42.672;23.230;2023-03-13T04:03:15;93612.00;;;-5.51;92.88
10988;BME280;5547;42.672;23.230;2023-03-13T04:06:17;93661.78;;;-5.17;95.81
10988;BME280;5547;42.672;23.230;2023-03-13T04:09:17;93642.16;;;-5.32;91.72
10988;BME280;5547;42.672;23.230;2023-03-13T04:12:17;93611.66;;;-5.58;94.39
10988;BME280;5547;42.672;23.230;2023-03-13T04:15:18;93677.28;;;-4.95;92.05
10988;BME280;5547;42.672;23.230;2023-03-13T04:18:18;93678.31;;;-5.04;93.52
10988;BME280;5547;42.672;23.230;2023-03-13T04:21:19;93599.50;;;-5.49;91.56
10988;BME280;5547;42.672;23.230;2023-03-13T04:24:20;93686.78;;;-5.21;94.31
10988;BME280;5547;42.672;23.230;2023-03-13T04:27:22;93683.28;;;-5.39;94.72
10988;BME280;5547;42.672;23.230;2023-03-13T04:30:23;93686.06;;;-5.36;97.78
10988;BME280;5547;42.672;23.230;2023-03-13T04:33:24;93690.81;;;-5.52;99.64
10988;BME280;5547;42.672;23.230;2023-03-13T04:36:24;93683.25;;;-5.62;100.00
10988;BME280;5547;42.672;23.230;2023-03-13T04:39:25;93692.34;;;-5.51;100.00
10988;BME280;5547;42.672;23.230;2023-03-13T04:42:25;93724.75;;;-5.39;100.00
10988;BME280;5547;42.672;23.230;2023-03-13T04:45:26;93724.53;;;-5.52;100.00
10988;BME280;5547;42.672;23.230;2023-03-13T04:48:27;93714.19;;;-5.65;100.00
10988;BME280;5547;42.672;23.230;2023-03-13T04:51:27;93718.97;;;-5.59;100.00
10988;BME280;5547;42.672;23.230;2023-03-13T04:54:29;93661.09;;;-5.91;100.00
10988;BME280;5547;42.672;23.230;2023-03-13T04:57:29;93698.28;;;-5.50;100.00
10988;BME280;5547;42.672;23.230;2023-03-13T05:00:30;93740.84;;;-5.06;99.80
10988;BME280;5547;42.672;23.230;2023-03-13T05:03:30;93671.41;;;-5.40;97.73
10988;BME280;5547;42.672;23.230;2023-03-13T05:06:31;93721.47;;;-5.09;98.93
10988;BME280;5547;42.672;23.230;2023-03-13T05:09:31;93723.41;;;-4.92;99.53
10988;BME280;5547;42.672;23.230;2023-03-13T05:12:32;93743.50;;;-4.75;96.92
10988;BME280;5547;42.672;23.230;2023-03-13T05:15:32;93716.13;;;-4.81;96.57
10988;BME280;5547;42.672;23.230;2023-03-13T05:18:33;93737.63;;;-4.58;96.28
10988;BME280;5547;42.672;23.230;2023-03-13T05:21:35;93733.47;;;-4.28;91.65
10988;BME280;5547;42.672;23.230;2023-03-13T05:24:35;93737.28;;;-3.85;87.48
10988;BME280;5547;42.672;23.230;2023-03-13T05:27:35;93761.63;;;-3.64;87.28
10988;BME280;5547;42.672;23.230;2023-03-13T05:30:36;93742.09;;;-3.44;85.05
10988;BME280;5547;42.672;23.230;2023-03-13T05:33:36;93715.75;;;-3.42;84.97
10988;BME280;5547;42.672;23.230;2023-03-13T05:36:37;93763.69;;;-3.00;84.84
10988;BME280;5547;42.672;23.230;2023-03-13T05:39:37;93777.41;;;-2.73;83.12
10988;BME280;5547;42.672;23.230;2023-03-13T05:42:38;93748.59;;;-2.50;79.54
10988;BME280;5547;42.672;23.230;2023-03-13T05:45:38;93749.91;;;-2.27;77.04
10988;BME280;5547;42.672;23.230;2023-03-13T05:48:39;93782.03;;;-2.05;77.52
10988;BME280;5547;42.672;23.230;2023-03-13T05:51:39;93769.13;;;-2.02;77.13
10988;BME280;5547;42.672;23.230;2023-03-13T05:54:40;93736.28;;;-2.33;77.13
10988;BME280;5547;42.672;23.230;2023-03-13T05:57:44;93789.75;;;-1.88;76.58
10988;BME280;5547;42.672;23.230;2023-03-13T06:00:44;93791.59;;;-1.50;74.77
10988;BME280;5547;42.672;23.230;2023-03-13T06:03:45;93803.25;;;-1.27;73.80
10988;BME280;5547;42.672;23.230;2023-03-13T06:06:46;93761.75;;;-1.40;72.74
10988;BME280;5547;42.672;23.230;2023-03-13T06:09:46;93794.09;;;-1.33;72.88
10988;BME280;5547;42.672;23.230;2023-03-13T06:12:54;93792.31;;;-1.20;71.87
10988;BME280;5547;42.672;23.230;2023-03-13T06:15:56;93797.84;;;-1.42;71.89
10988;BME280;5547;42.672;23.230;2023-03-13T06:18:57;93802.84;;;-1.37;72.39
10988;BME280;5547;42.672;23.230;2023-03-13T06:21:57;93799.31;;;-1.33;72.31
10988;BME280;5547;42.672;23.230;2023-03-13T06:24:58;93648.16;;;-1.80;69.83
10988;BME280;5547;42.672;23.230;2023-03-13T06:27:58;93798.56;;;-1.12;71.18
10988;BME280;5547;42.672;23.230;2023-03-13T06:31:03;93773.59;;;-0.80;70.81
10988;BME280;5547;42.672;23.230;2023-03-13T06:34:04;93765.72;;;-0.92;71.46
10988;BME280;5547;42.672;23.230;2023-03-13T06:37:04;93780.56;;;-0.72;70.07
10988;BME280;5547;42.672;23.230;2023-03-13T06:40:05;93775.84;;;-0.57;70.95
10988;BME280;5547;42.672;23.230;2023-03-13T06:43:06;93734.47;;;-0.89;71.67
10988;BME280;5547;42.672;23.230;2023-03-13T06:46:07;93796.72;;;-0.36;68.12
10988;BME280;5547;42.672;23.230;2023-03-13T06:49:14;93787.31;;;0.08;67.25
10988;BME280;5547;42.672;23.230;2023-03-13T06:52:14;93792.75;;;0.15;66.63
10988;BME280;5547;42.672;23.230;2023-03-13T06:55:15;93791.06;;;-0.26;67.97
10988;BME280;5547;42.672;23.230;2023-03-13T06:58:17;93786.72;;;-0.22;68.43
10988;BME280;5547;42.672;23.230;2023-03-13T07:01:17;93790.38;;;0.35;65.94
10988;BME280;5547;42.672;23.230;2023-03-13T07:04:18;93787.47;;;-0.22;67.59
10988;BME280;5547;42.672;23.230;2023-03-13T07:07:19;93790.84;;;-0.21;68.39
10988;BME280;5547;42.672;23.230;2023-03-13T07:10:19;93804.94;;;-0.01;67.35
10988;BME280;5547;42.672;23.230;2023-03-13T07:13:20;93806.59;;;0.16;67.49
10988;BME280;5547;42.672;23.230;2023-03-13T07:16:23;93741.44;;;-0.59;67.57
10988;BME280;5547;42.672;23.230;2023-03-13T07:19:24;93788.19;;;0.49;67.65
10988;BME280;5547;42.672;23.230;2023-03-13T07:22:27;93795.28;;;0.61;66.98
10988;BME280;5547;42.672;23.230;2023-03-13T07:25:28;93764.97;;;0.23;66.63
10988;BME280;5547;42.672;23.230;2023-03-13T07:28:29;93767.78;;;0.18;65.90
10988;BME280;5547;42.672;23.230;2023-03-13T07:31:30;93788.63;;;0.39;67.37
10988;BME280;5547;42.672;23.230;2023-03-13T07:34:33;93768.47;;;0.15;67.85
10988;BME280;5547;42.672;23.230;2023-03-13T07:37:34;93778.47;;;0.25;66.23
10988;BME280;5547;42.672;23.230;2023-03-13T07:40:35;93792.03;;;0.39;66.62
10988;BME280;5547;42.672;23.230;2023-03-13T07:43:35;93796.81;;;0.50;68.24
10988;BME280;5547;42.672;23.230;2023-03-13T07:46:35;93795.38;;;1.17;65.84
10988;BME280;5547;42.672;23.230;2023-03-13T07:49:36;93770.84;;;0.57;65.42
10988;BME280;5547;42.672;23.230;2023-03-13T07:52:41;93793.09;;;1.16;64.93
10988;BME280;5547;42.672;23.230;2023-03-13T07:55:41;93785.00;;;1.21;65.47
10988;BME280;5547;42.672;23.230;2023-03-13T07:58:44;93780.63;;;1.53;66.76
10988;BME280;5547;42.672;23.230;2023-03-13T08:01:45;93758.69;;;1.45;64.82
10988;BME280;5547;42.672;23.230;2023-03-13T08:04:45;93781.09;;;1.43;65.12
10988;BME280;5547;42.672;23.230;2023-03-13T08:07:46;93777.47;;;1.19;64.79
10988;BME280;5547;42.672;23.230;2023-03-13T08:10:46;93769.78;;;1.55;64.93
10988;BME280;5547;42.672;23.230;2023-03-13T08:13:47;93758.50;;;1.38;65.07
10988;BME280;5547;42.672;23.230;2023-03-13T08:16:49;93749.19;;;1.41;63.71
10988;BME280;5547;42.672;23.230;2023-03-13T08:19:49;93783.75;;;1.59;64.80
10988;BME280;5547;42.672;23.230;2023-03-13T08:22:50;93744.97;;;1.64;61.42
10988;BME280;5547;42.672;23.230;2023-03-13T08:25:50;93787.09;;;1.72;64.11
10988;BME280;5547;42.672;23.230;2023-03-13T08:28:53;93790.41;;;1.84;63.75
10988;BME280;5547;42.672;23.230;2023-03-13T08:31:55;93793.06;;;2.32;63.86
10988;BME280;5547;42.672;23.230;2023-03-13T08:34:56;93801.00;;;1.88;64.89
10988;BME280;5547;42.672;23.230;2023-03-13T08:37:57;93794.88;;;1.84;66.09
10988;BME280;5547;42.672;23.230;2023-03-13T08:40:57;93788.13;;;2.15;65.72
10988;BME280;5547;42.672;23.230;2023-03-13T08:43:58;93791.94;;;2.33;64.30
10988;BME280;5547;42.672;23.230;2023-03-13T08:46:58;93774.88;;;2.59;61.83
10988;BME280;5547;42.672;23.230;2023-03-13T08:49:59;93783.31;;;2.01;64.21
10988;BME280;5547;42.672;23.230;2023-03-13T08:53:00;93762.19;;;1.65;63.97
10988;BME280;5547;42.672;23.230;2023-03-13T08:56:02;93732.75;;;1.56;65.00
10988;BME280;5547;42.672;23.230;2023-03-13T08:59:05;93771.13;;;2.24;62.33
10988;BME280;5547;42.672;23.230;2023-03-13T09:02:05;93755.41;;;2.08;63.16
10988;BME280;5547;42.672;23.230;2023-03-13T09:05:06;93776.56;;;2.31;62.63
10988;BME280;5547;42.672;23.230;2023-03-13T09:08:07;93786.09;;;2.56;61.40
10988;BME280;5547;42.672;23.230;2023-03-13T09:11:10;93778.28;;;2.75;62.38
10988;BME280;5547;42.672;23.230;2023-03-13T09:14:10;93731.94;;;2.86;61.98
10988;BME280;5547;42.672;23.230;2023-03-13T09:17:11;93756.94;;;3.15;60.67
10988;BME280;5547;42.672;23.230;2023-03-13T09:20:11;93785.16;;;3.57;58.79
10988;BME280;5547;42.672;23.230;2023-03-13T09:23:12;93786.19;;;3.53;59.37
10988;BME280;5547;42.672;23.230;2023-03-13T09:26:13;93781.31;;;3.12;60.20
10988;BME280;5547;42.672;23.230;2023-03-13T09:29:13;93781.22;;;3.09;62.01
10988;BME280;5547;42.672;23.230;2023-03-13T09:32:14;93783.53;;;3.49;62.94
10988;BME280;5547;42.672;23.230;2023-03-13T09:35:15;93770.63;;;3.44;61.64
10988;BME280;5547;42.672;23.230;2023-03-13T09:38:19;93772.59;;;3.47;60.65
10988;BME280;5547;42.672;23.230;2023-03-13T09:41:25;93783.16;;;3.31;62.24
10988;BME280;5547;42.672;23.230;2023-03-13T09:44:32;93779.91;;;3.57;62.36
10988;BME280;5547;42.672;23.230;2023-03-13T09:47:51;93775.69;;;3.33;61.25
10988;BME280;5547;42.672;23.230;2023-03-13T09:51:02;93633.88;;;2.79;63.43
10988;BME280;5547;42.672;23.230;2023-03-13T09:54:11;93770.91;;;4.01;59.80
10988;BME280;5547;42.672;23.230;2023-03-13T10:00:42;93646.28;;;3.44;61.26
10988;BME280;5547;42.672;23.230;2023-03-13T10:03:59;93755.75;;;4.17;60.06
10988;BME280;5547;42.672;23.230;2023-03-13T10:07:03;93764.50;;;4.75;59.04
10988;BME280;5547;42.672;23.230;2023-03-13T10:10:20;93572.13;;;2.88;59.51
10988;BME280;5547;42.672;23.230;2023-03-13T10:13:32;93762.16;;;4.43;58.96
10988;BME280;5547;42.672;23.230;2023-03-13T10:16:54;93750.66;;;4.05;61.10
10988;BME280;5547;42.672;23.230;2023-03-13T10:20:16;93745.72;;;4.76;59.03
10988;BME280;5547;42.672;23.230;2023-03-13T10:26:34;93746.31;;;4.96;57.04
10988;BME280;5547;42.672;23.230;2023-03-13T10:29:35;93684.84;;;4.05;58.02
10988;BME280;5547;42.672;23.230;2023-03-13T10:32:37;93580.22;;;3.22;58.88
10988;BME280;5547;42.672;23.230;2023-03-13T10:35:40;93584.34;;;3.96;55.45
10988;BME280;5547;42.672;23.230;2023-03-13T10:38:50;93592.84;;;4.12;57.09
10988;BME280;5547;42.672;23.230;2023-03-13T10:41:56;93501.09;;;4.14;55.36
10988;BME280;5547;42.672;23.230;2023-03-13T10:45:04;93719.13;;;5.19;56.18
10988;BME280;5547;42.672;23.230;2023-03-13T10:48:29;93694.91;;;5.10;57.11
10988;BME280;5547;42.672;23.230;2023-03-13T10:51:38;93617.00;;;4.78;54.96
10988;BME280;5547;42.672;23.230;2023-03-13T10:54:39;93563.88;;;4.42;53.73
10988;BME280;5547;42.672;23.230;2023-03-13T10:57:42;93698.44;;;5.58;53.99
10988;BME280;5547;42.672;23.230;2023-03-13T11:00:51;93709.66;;;5.48;53.99
10988;BME280;5547;42.672;23.230;2023-03-13T11:03:53;93559.09;;;4.86;52.86
10988;BME280;5547;42.672;23.230;2023-03-13T11:07:04;93464.56;;;4.09;51.68
10988;BME280;5547;42.672;23.230;2023-03-13T11:10:22;93688.47;;;5.82;52.94
10988;BME280;5547;42.672;23.230;2023-03-13T11:16:28;93589.84;;;5.12;51.89
10988;BME280;5547;42.672;23.230;2023-03-13T11:26:47;93667.75;;;5.84;51.98
10988;BME280;5547;42.672;23.230;2023-03-13T11:33:28;93661.50;;;6.62;50.51
10988;BME280;5547;42.672;23.230;2023-03-13T11:36:47;93653.59;;;6.69;50.71
10988;BME280;5547;42.672;23.230;2023-03-13T11:39:58;93645.88;;;6.31;51.46
10988;BME280;5547;42.672;23.230;2023-03-13T11:46:44;93635.88;;;6.73;50.71
10988;BME280;5547;42.672;23.230;2023-03-13T11:50:00;93637.25;;;6.45;50.63
10988;BME280;5547;42.672;23.230;2023-03-13T11:53:34;93631.28;;;6.63;51.51
10988;BME280;5547;42.672;23.230;2023-03-13T11:56:42;93633.31;;;6.87;50.45
10988;BME280;5547;42.672;23.230;2023-03-13T12:00:14;93621.94;;;6.80;49.94
10988;BME280;5547;42.672;23.230;2023-03-13T12:03:33;93614.41;;;6.82;49.83
10988;BME280;5547;42.672;23.230;2023-03-13T12:10:02;93578.81;;;6.54;49.25
10988;BME280;5547;42.672;23.230;2023-03-13T12:13:18;93594.25;;;6.52;49.40
10988;BME280;5547;42.672;23.230;2023-03-13T12:16:24;93578.50;;;6.73;49.23
10988;BME280;5547;42.672;23.230;2023-03-13T12:22:50;93595.13;;;6.88;49.67
10988;BME280;5547;42.672;23.230;2023-03-13T12:26:08;93591.09;;;7.34;48.30
10988;BME280;5547;42.672;23.230;2023-03-13T12:29:16;93456.69;;;6.02;48.08
10988;BME280;5547;42.672;23.230;2023-03-13T12:32:38;93588.00;;;6.89;49.36
10988;BME280;5547;42.672;23.230;2023-03-13T12:35:43;93575.63;;;7.47;48.73
10988;BME280;5547;42.672;23.230;2023-03-13T12:38:59;93554.84;;;7.49;46.56
10988;BME280;5547;42.672;23.230;2023-03-13T12:42:32;93587.34;;;7.35;46.81
10988;BME280;5547;42.672;23.230;2023-03-13T12:45:44;93502.56;;;6.60;47.86
10988;BME280;5547;42.672;23.230;2023-03-13T12:59:26;93568.81;;;7.60;45.63
10988;BME280;5547;42.672;23.230;2023-03-13T13:02:29;93589.22;;;7.77;45.34
10988;BME280;5547;42.672;23.230;2023-03-13T13:05:30;93591.88;;;7.85;44.89
10988;BME280;5547;42.672;23.230;2023-03-13T13:08:48;93595.28;;;7.60;45.19
10988;BME280;5547;42.672;23.230;2023-03-13T13:12:20;93585.06;;;7.58;45.63
10988;BME280;5547;42.672;23.230;2023-03-13T13:15:26;93594.50;;;7.45;45.18
10988;BME280;5547;42.672;23.230;2023-03-13T13:18:29;93586.56;;;7.67;46.12
10988;BME280;5547;42.672;23.230;2023-03-13T13:21:30;93581.66;;;7.62;44.78
10988;BME280;5547;42.672;23.230;2023-03-13T13:24:47;93582.41;;;7.41;44.33
10988;BME280;5547;42.672;23.230;2023-03-13T13:27:48;93519.66;;;7.05;47.03
10988;BME280;5547;42.672;23.230;2023-03-13T13:30:50;93566.91;;;7.35;45.95
10988;BME280;5547;42.672;23.230;2023-03-13T13:33:51;93550.66;;;7.33;46.32
10988;BME280;5547;42.672;23.230;2023-03-13T13:36:52;93565.03;;;7.50;46.48
10988;BME280;5547;42.672;23.230;2023-03-13T13:40:18;93563.91;;;7.66;44.83
10988;BME280;5547;42.672;23.230;2023-03-13T13:43:22;93551.78;;;7.86;44.61
10988;BME280;5547;42.672;23.230;2023-03-13T13:46:30;93556.28;;;8.07;43.42
10988;BME280;5547;42.672;23.230;2023-03-13T13:49:34;93557.84;;;7.87;44.51
10988;BME280;5547;42.672;23.230;2023-03-13T13:52:39;93534.00;;;7.90;44.00
10988;BME280;5547;42.672;23.230;2023-03-13T13:55:43;93554.44;;;7.86;43.34
10988;BME280;5547;42.672;23.230;2023-03-13T13:58:44;93523.06;;;7.52;44.55
10988;BME280;5547;42.672;23.230;2023-03-13T14:01:47;93537.06;;;7.67;44.46
10988;BME280;5547;42.672;23.230;2023-03-13T14:04:51;93555.53;;;8.07;43.31
10988;BME280;5547;42.672;23.230;2023-03-13T14:11:27;93523.44;;;7.40;44.91
10988;BME280;5547;42.672;23.230;2023-03-13T14:14:30;93556.72;;;7.66;45.15
10988;BME280;5547;42.672;23.230;2023-03-13T14:17:30;93531.34;;;7.76;43.43
10988;BME280;5547;42.672;23.230;2023-03-13T14:20:38;93545.38;;;7.41;45.72
10988;BME280;5547;42.672;23.230;2023-03-13T14:23:41;93440.25;;;6.69;45.27
10988;BME280;5547;42.672;23.230;2023-03-13T14:26:43;93552.16;;;7.24;46.20
10988;BME280;5547;42.672;23.230;2023-03-13T14:30:00;93548.41;;;7.68;44.07
10988;BME280;5547;42.672;23.230;2023-03-13T14:33:01;93516.63;;;7.46;43.94
10988;BME280;5547;42.672;23.230;2023-03-13T14:36:02;93513.22;;;7.31;43.47
10988;BME280;5547;42.672;23.230;2023-03-13T14:39:02;93546.13;;;7.55;43.65
10988;BME280;5547;42.672;23.230;2023-03-13T14:42:09;93549.53;;;7.45;43.15
10988;BME280;5547;42.672;23.230;2023-03-13T14:45:13;93552.56;;;7.65;44.28
10988;BME280;5547;42.672;23.230;2023-03-13T14:51:24;93546.88;;;7.63;43.34
10988;BME280;5547;42.672;23.230;2023-03-13T14:54:28;93521.16;;;7.21;44.25
10988;BME280;5547;42.672;23.230;2023-03-13T14:57:31;93545.72;;;7.25;44.46
10988;BME280;5547;42.672;23.230;2023-03-13T15:00:37;93513.94;;;6.89;45.82
10988;BME280;5547;42.672;23.230;2023-03-13T15:03:42;93507.13;;;6.88;45.14
10988;BME280;5547;42.672;23.230;2023-03-13T15:06:44;93534.75;;;7.01;45.76
10988;BME280;5547;42.672;23.230;2023-03-13T15:09:46;93526.44;;;7.21;44.55
10988;BME280;5547;42.672;23.230;2023-03-13T15:12:48;93543.09;;;7.50;44.22
10988;BME280;5547;42.672;23.230;2023-03-13T15:15:50;93515.88;;;7.46;43.92
10988;BME280;5547;42.672;23.230;2023-03-13T15:18:52;93553.69;;;7.50;44.01
10988;BME280;5547;42.672;23.230;2023-03-13T15:21:53;93532.50;;;7.14;44.17
10988;BME280;5547;42.672;23.230;2023-03-13T15:24:54;93528.25;;;6.73;45.83
10988;BME280;5547;42.672;23.230;2023-03-13T15:27:54;93546.75;;;6.73;47.27
10988;BME280;5547;42.672;23.230;2023-03-13T15:30:54;93541.44;;;6.59;47.99
10988;BME280;5547;42.672;23.230;2023-03-13T15:33:57;93556.19;;;6.67;48.39
10988;BME280;5547;42.672;23.230;2023-03-13T15:36:57;93526.34;;;6.63;47.47
10988;BME280;5547;42.672;23.230;2023-03-13T15:39:58;93514.91;;;6.34;47.92
10988;BME280;5547;42.672;23.230;2023-03-13T15:42:58;93561.34;;;6.42;49.69
10988;BME280;5547;42.672;23.230;2023-03-13T15:46:00;93551.06;;;6.16;49.90
10988;BME280;5547;42.672;23.230;2023-03-13T15:49:00;93547.94;;;5.99;50.98
10988;BME280;5547;42.672;23.230;2023-03-13T15:52:01;93533.38;;;5.64;52.12
10988;BME280;5547;42.672;23.230;2023-03-13T15:55:01;93550.22;;;5.49;53.77
10988;BME280;5547;42.672;23.230;2023-03-13T15:58:02;93542.44;;;5.19;55.40
10988;BME280;5547;42.672;23.230;2023-03-13T16:01:02;93548.91;;;4.84;57.68
10988;BME280;5547;42.672;23.230;2023-03-13T16:04:03;93537.69;;;4.57;60.81
10988;BME280;5547;42.672;23.230;2023-03-13T16:07:09;93527.91;;;4.24;64.33
10988;BME280;5547;42.672;23.230;2023-03-13T16:10:20;93530.97;;;4.26;66.05
10988;BME280;5547;42.672;23.230;2023-03-13T16:13:21;93522.19;;;3.88;66.30
10988;BME280;5547;42.672;23.230;2023-03-13T16:16:25;93519.47;;;3.81;67.39
10988;BME280;5547;42.672;23.230;2023-03-13T16:19:28;93502.06;;;3.46;69.07
10988;BME280;5547;42.672;23.230;2023-03-13T16:22:28;93514.41;;;3.42;68.88
10988;BME280;5547;42.672;23.230;2023-03-13T16:25:32;93517.78;;;3.15;71.13
10988;BME280;5547;42.672;23.230;2023-03-13T16:28:32;93525.53;;;3.08;70.15
10988;BME280;5547;42.672;23.230;2023-03-13T16:31:32;93519.56;;;2.88;71.44
10988;BME280;5547;42.672;23.230;2023-03-13T16:34:33;93518.28;;;2.79;72.32
10988;BME280;5547;42.672;23.230;2023-03-13T16:37:33;93525.78;;;2.57;72.93
10988;BME280;5547;42.672;23.230;2023-03-13T16:40:34;93485.28;;;2.16;73.06
10988;BME280;5547;42.672;23.230;2023-03-13T16:43:34;93495.06;;;2.19;73.34
10988;BME280;5547;42.672;23.230;2023-03-13T16:46:37;93534.59;;;2.45;74.10
10988;BME280;5547;42.672;23.230;2023-03-13T16:49:38;93534.84;;;2.40;75.15
10988;BME280;5547;42.672;23.230;2023-03-13T16:52:38;93531.69;;;2.12;76.48
10988;BME280;5547;42.672;23.230;2023-03-13T16:55:39;93516.34;;;1.94;76.97
10988;BME280;5547;42.672;23.230;2023-03-13T16:58:39;93543.47;;;2.02;77.04
10988;BME280;5547;42.672;23.230;2023-03-13T17:01:40;93542.59;;;1.94;76.82
10988;BME280;5547;42.672;23.230;2023-03-13T17:04:40;93544.09;;;1.95;75.80
10988;BME280;5547;42.672;23.230;2023-03-13T17:07:46;93515.00;;;1.65;76.88
10988;BME280;5547;42.672;23.230;2023-03-13T17:10:47;93542.94;;;1.77;76.36